createdAt,value
2023-09-08T00:00:49.942Z,100569.22
2023-09-08T00:03:22.875Z,100582.97
2023-09-08T00:05:51.843Z,100581.34
2023-09-08T00:08:20.938Z,100583.63
2023-09-08T00:10:53.750Z,100587.66
2023-09-08T00:13:22.598Z,100576.91
2023-09-08T00:15:51.364Z,100577.22
2023-09-08T00:18:19.262Z,100557.03
2023-09-08T00:20:47.221Z,100578.25
2023-09-08T00:23:18.047Z,100584.38
2023-09-08T00:25:45.876Z,100577.78
2023-09-08T00:28:15.451Z,100571.72
2023-09-08T00:30:43.964Z,100566.72
2023-09-08T00:33:15.206Z,100574.72
2023-09-08T00:35:49.481Z,100574.88
2023-09-08T00:38:17.634Z,100546.53
2023-09-08T00:40:46.602Z,100538.53
2023-09-08T00:43:15.762Z,100566.13
2023-09-08T00:45:45.634Z,100572.13
2023-09-08T00:48:14.599Z,100554.16
2023-09-08T00:50:43.531Z,100570.34
2023-09-08T00:53:14.987Z,100559.66
2023-09-08T00:55:43.366Z,100560.56
2023-09-08T00:58:13.268Z,100565.47
2023-09-08T01:00:42.670Z,100557.84
2023-09-08T01:03:11.570Z,100550.63
2023-09-08T01:05:42.484Z,100549.06
2023-09-08T01:08:12.062Z,100542.41
2023-09-08T01:10:42.294Z,100556.16
2023-09-08T01:13:10.813Z,100566.09
2023-09-08T01:15:38.755Z,100563.91
2023-09-08T01:18:09.773Z,100550.69
2023-09-08T01:20:50.919Z,100565.13
2023-09-08T01:23:23.409Z,100555.41
2023-09-08T01:26:00.152Z,100570.75
2023-09-08T01:28:31.339Z,100573.50
2023-09-08T01:31:01.924Z,100558.63
2023-09-08T01:33:30.767Z,100567.75
2023-09-08T01:36:00.956Z,100574.44
2023-09-08T01:38:30.250Z,100565.94
2023-09-08T01:40:59.898Z,100554.34
2023-09-08T01:43:27.869Z,100565.91
2023-09-08T01:46:00.075Z,100555.72
2023-09-08T01:48:29.430Z,100563.16
2023-09-08T01:50:58.913Z,100547.41
2023-09-08T01:53:27.193Z,100553.75
2023-09-08T01:55:55.487Z,100556.75
2023-09-08T01:58:25.226Z,100561.44
2023-09-08T02:00:53.699Z,100535.72
2023-09-08T02:03:21.747Z,100562.31
2023-09-08T02:05:49.813Z,100506.25
2023-09-08T02:08:17.962Z,100548.19
2023-09-08T02:10:45.820Z,100554.41
2023-09-08T02:13:16.041Z,100561.06
2023-09-08T02:15:46.195Z,100540.69
2023-09-08T02:18:14.636Z,100558.38
2023-09-08T02:20:44.057Z,100554.75
2023-09-08T02:23:20.328Z,100551.78
2023-09-08T02:25:49.222Z,100555.47
2023-09-08T02:28:18.120Z,100558.44
2023-09-08T02:30:48.842Z,100539.88
2023-09-08T02:33:17.579Z,100558.53
2023-09-08T02:35:50.007Z,100538.59
2023-09-08T02:38:19.606Z,100555.78
2023-09-08T02:40:49.594Z,100548.16
2023-09-08T02:43:19.842Z,100556.19
2023-09-08T02:45:50.837Z,100531.78
2023-09-08T02:48:18.981Z,100538.41
2023-09-08T02:50:48.349Z,100559.34
2023-09-08T02:53:17.904Z,100531.72
2023-09-08T02:55:48.724Z,100572.81
2023-09-08T02:58:19.050Z,100558.25
2023-09-08T03:00:47.184Z,100560.72
2023-09-08T03:03:16.984Z,100555.31
2023-09-08T03:05:48.054Z,100556.84
2023-09-08T03:08:17.618Z,100558.66
2023-09-08T03:10:49.473Z,100556.44
2023-09-08T03:13:18.201Z,100557.91
2023-09-08T03:15:48.535Z,100555.50
2023-09-08T03:18:19.223Z,100563.19
2023-09-08T03:20:50.728Z,100554.19
2023-09-08T03:23:19.011Z,100556.13
2023-09-08T03:25:49.987Z,100563.50
2023-09-08T03:28:18.169Z,100552.66
2023-09-08T03:30:50.606Z,100534.94
2023-09-08T03:33:21.674Z,100556.22
2023-09-08T03:35:49.573Z,100556.34
2023-09-08T03:38:19.838Z,100526.31
2023-09-08T03:40:48.998Z,100555.66
2023-09-08T03:43:17.199Z,100540.44
2023-09-08T03:45:46.244Z,100554.06
2023-09-08T03:48:15.031Z,100550.25
2023-09-08T03:50:51.657Z,100552.97
2023-09-08T03:53:22.611Z,100563.16
2023-09-08T03:55:51.182Z,100559.25
2023-09-08T03:58:20.165Z,100570.03
2023-09-08T04:00:58.882Z,100556.56
2023-09-08T04:03:27.857Z,100567.50
2023-09-08T04:05:57.782Z,100551.81
2023-09-08T04:08:27.083Z,100546.84
2023-09-08T04:11:03.710Z,100565.66
2023-09-08T04:13:33.824Z,100561.00
2023-09-08T04:16:04.771Z,100540.22
2023-09-08T04:18:36.198Z,100546.00
2023-09-08T04:21:08.985Z,100567.72
2023-09-08T04:23:37.412Z,100561.72
2023-09-08T04:26:05.673Z,100576.31
2023-09-08T04:28:33.605Z,100576.47
2023-09-08T04:31:01.786Z,100577.50
2023-09-08T04:33:31.310Z,100577.84
2023-09-08T04:35:59.478Z,100584.53
2023-09-08T04:38:28.904Z,100580.72
2023-09-08T04:40:56.733Z,100579.59
2023-09-08T04:43:31.268Z,100556.69
2023-09-08T04:45:59.760Z,100595.22
2023-09-08T04:48:31.154Z,100577.34
2023-09-08T04:51:03.576Z,100599.63
2023-09-08T04:53:36.292Z,100591.38
2023-09-08T04:56:04.640Z,100599.56
2023-09-08T04:58:33.393Z,100591.50
2023-09-08T05:01:01.685Z,100606.84
2023-09-08T05:03:31.991Z,100606.25
2023-09-08T05:06:06.336Z,100603.31
2023-09-08T05:08:36.409Z,100603.34
2023-09-08T05:11:05.669Z,100598.88
2023-09-08T05:13:36.789Z,100607.53
2023-09-08T05:16:12.799Z,100595.41
2023-09-08T05:18:41.237Z,100599.63
2023-09-08T05:21:13.837Z,100597.34
2023-09-08T05:23:44.262Z,100599.31
2023-09-08T05:26:15.008Z,100584.66
2023-09-08T05:28:45.330Z,100598.59
2023-09-08T05:31:13.815Z,100606.22
2023-09-08T05:33:43.012Z,100613.25
2023-09-08T05:36:12.839Z,100609.31
2023-09-08T05:38:44.610Z,100599.88
2023-09-08T05:41:17.240Z,100599.53
2023-09-08T05:43:46.850Z,100602.19
2023-09-08T05:46:14.940Z,100593.22
2023-09-08T05:48:44.328Z,100609.56
2023-09-08T05:51:12.525Z,100603.41
2023-09-08T05:53:41.953Z,100614.28
2023-09-08T05:56:13.666Z,100609.88
2023-09-08T05:58:41.578Z,100613.69
2023-09-08T06:01:09.954Z,100623.69
2023-09-08T06:03:39.460Z,100607.44
2023-09-08T06:06:07.980Z,100623.41
2023-09-08T06:08:36.431Z,100621.06
2023-09-08T06:11:04.895Z,100617.53
2023-09-08T06:13:34.424Z,100615.47
2023-09-08T06:16:03.460Z,100611.94
2023-09-08T06:18:32.935Z,100620.78
2023-09-08T06:21:01.697Z,100621.91
2023-09-08T06:23:31.441Z,100619.94
2023-09-08T06:26:01.346Z,100621.31
2023-09-08T06:28:29.771Z,100610.50
2023-09-08T06:31:03.464Z,100602.22
2023-09-08T06:33:31.420Z,100602.78
2023-09-08T06:36:00.817Z,100611.53
2023-09-08T06:38:32.326Z,100627.25
2023-09-08T06:41:02.175Z,100610.50
2023-09-08T06:43:30.502Z,100599.31
2023-09-08T06:45:59.233Z,100603.19
2023-09-08T06:48:29.283Z,100608.66
2023-09-08T06:50:58.101Z,100619.47
2023-09-08T06:53:26.294Z,100610.09
2023-09-08T06:55:57.367Z,100602.03
2023-09-08T06:58:25.500Z,100611.06
2023-09-08T07:00:55.850Z,100612.41
2023-09-08T07:03:24.880Z,100615.50
2023-09-08T07:05:59.466Z,100608.16
2023-09-08T07:08:29.262Z,100608.44
2023-09-08T07:10:59.008Z,100601.03
2023-09-08T07:13:28.200Z,100578.88
2023-09-08T07:15:58.969Z,100597.25
2023-09-08T07:18:27.926Z,100611.81
2023-09-08T07:20:57.497Z,100611.97
2023-09-08T07:23:27.917Z,100602.91
2023-09-08T07:25:57.323Z,100604.00
2023-09-08T07:28:28.353Z,100605.56
2023-09-08T07:31:06.817Z,100608.44
2023-09-08T07:33:36.335Z,100605.03
2023-09-08T07:36:10.639Z,100582.41
2023-09-08T07:38:39.130Z,100603.13
2023-09-08T07:41:07.562Z,100600.06
2023-09-08T07:43:41.524Z,100597.63
2023-09-08T07:46:09.721Z,100593.84
2023-09-08T07:48:38.263Z,100595.97
2023-09-08T07:51:08.261Z,100596.53
2023-09-08T07:53:37.679Z,100567.94
2023-09-08T07:56:06.488Z,100588.00
2023-09-08T07:58:36.151Z,100591.34
2023-09-08T08:01:04.751Z,100589.56
2023-09-08T08:03:33.478Z,100597.88
2023-09-08T08:06:02.420Z,100608.16
2023-09-08T08:08:32.458Z,100567.63
2023-09-08T08:11:02.617Z,100591.06
2023-09-08T08:13:34.439Z,100600.81
2023-09-08T08:16:03.560Z,100601.25
2023-09-08T08:18:32.010Z,100606.31
2023-09-08T08:21:04.795Z,100595.81
2023-09-08T08:23:35.246Z,100599.44
2023-09-08T08:26:05.522Z,100600.16
2023-09-08T08:28:33.790Z,100610.88
2023-09-08T08:31:03.729Z,100611.25
2023-09-08T08:33:34.617Z,100605.31
2023-09-08T08:36:04.987Z,100606.03
2023-09-08T08:38:39.720Z,100607.06
2023-09-08T08:41:08.660Z,100595.91
2023-09-08T08:43:38.056Z,100603.94
2023-09-08T08:46:11.669Z,100590.38
2023-09-08T08:48:41.318Z,100582.28
2023-09-08T08:51:11.498Z,100590.94
2023-09-08T08:53:43.712Z,100587.03
2023-09-08T08:56:15.106Z,100584.19
2023-09-08T08:58:44.556Z,100580.50
2023-09-08T09:01:17.260Z,100560.03
2023-09-08T09:03:46.518Z,100571.38
2023-09-08T09:06:15.798Z,100580.91
2023-09-08T09:08:51.644Z,100563.97
2023-09-08T09:11:22.330Z,100580.09
2023-09-08T09:13:50.254Z,100579.78
2023-09-08T09:16:18.202Z,100585.25
2023-09-08T09:19:08.227Z,100577.84
2023-09-08T09:21:48.533Z,100559.88
2023-09-08T09:24:20.952Z,100572.69
2023-09-08T09:26:55.315Z,100575.56
2023-09-08T09:29:24.350Z,100574.41
2023-09-08T09:31:55.306Z,100566.22
2023-09-08T09:34:24.278Z,100569.50
2023-09-08T09:36:53.327Z,100563.69
2023-09-08T09:39:30.061Z,100565.84
2023-09-08T09:42:01.145Z,100567.72
2023-09-08T09:44:30.221Z,100548.81
2023-09-08T09:47:00.395Z,100548.06
2023-09-08T09:49:33.197Z,100549.72
2023-09-08T09:52:01.724Z,100567.63
2023-09-08T09:54:31.850Z,100564.69
2023-09-08T09:57:04.665Z,100569.88
2023-09-08T09:59:35.584Z,100559.56
2023-09-08T10:02:04.150Z,100565.84
2023-09-08T10:07:28.023Z,100544.47
2023-09-08T10:09:59.022Z,100560.28
2023-09-08T10:12:38.222Z,100538.56
2023-09-08T10:15:09.134Z,100561.38
2023-09-08T10:17:40.694Z,100567.44
2023-09-08T10:20:12.580Z,100556.47
2023-09-08T10:22:43.621Z,100557.50
2023-09-08T10:25:17.050Z,100533.19
2023-09-08T10:27:51.681Z,100546.75
2023-09-08T10:30:23.767Z,100543.94
2023-09-08T10:32:54.534Z,100537.19
2023-09-08T10:35:26.184Z,100543.69
2023-09-08T10:38:29.321Z,100523.56
2023-09-08T10:41:33.646Z,100534.78
2023-09-08T10:44:10.374Z,100500.81
2023-09-08T10:46:39.580Z,100531.84
2023-09-08T10:49:11.376Z,100528.41
2023-09-08T10:51:40.971Z,100531.06
2023-09-08T10:54:11.638Z,100522.66
2023-09-08T11:42:17.372Z,100480.53
2023-09-08T11:45:02.744Z,100459.41
2023-09-08T11:47:37.470Z,100468.66
2023-09-08T11:56:29.872Z,100466.69
2023-09-08T11:59:17.498Z,100443.16
2023-09-08T12:05:24.072Z,100479.53
2023-09-08T12:08:14.002Z,100472.25
2023-09-08T12:13:52.303Z,100472.34
2023-09-08T12:16:21.899Z,100474.66
2023-09-08T12:18:52.818Z,100453.41
2023-09-08T12:21:23.119Z,100437.38
2023-09-08T12:23:51.855Z,100458.53
2023-09-08T12:26:20.704Z,100460.75
2023-09-08T12:28:53.291Z,100463.16
2023-09-08T12:31:30.207Z,100455.53
2023-09-08T12:33:59.822Z,100467.09
2023-09-08T12:36:27.939Z,100463.94
2023-09-08T12:39:01.689Z,100456.25
2023-09-08T12:41:29.736Z,100448.72
2023-09-08T12:43:59.540Z,100428.81
2023-09-08T12:46:28.392Z,100453.31
2023-09-08T12:48:58.972Z,100454.31
2023-09-08T13:09:52.179Z,100437.59
2023-09-08T14:15:10.117Z,100383.19
2023-09-08T14:17:38.085Z,100384.25
2023-09-08T14:20:13.944Z,100373.31
2023-09-08T14:22:46.114Z,100373.78
2023-09-08T14:25:47.340Z,100379.03
2023-09-08T14:28:16.881Z,100386.13
2023-09-08T14:30:47.995Z,100377.88
2023-09-08T14:33:17.179Z,100385.06
2023-09-08T14:35:47.120Z,100377.38
2023-09-08T14:38:19.433Z,100379.81
2023-09-08T14:40:56.773Z,100385.38
2023-09-08T14:43:31.470Z,100383.75
2023-09-08T14:46:04.138Z,100377.53
2023-09-08T14:48:33.768Z,100377.94
2023-09-08T14:51:03.477Z,100380.78
2023-09-08T14:53:37.487Z,100376.44
2023-09-08T14:56:11.911Z,100369.47
2023-09-08T14:58:42.212Z,100369.56
2023-09-08T15:01:10.233Z,100374.00
2023-09-08T15:03:41.496Z,100373.66
2023-09-08T15:06:13.618Z,100369.72
2023-09-08T15:08:46.726Z,100364.47
2023-09-08T15:11:16.458Z,100365.81
2023-09-08T15:13:44.404Z,100375.00
2023-09-08T15:16:15.857Z,100360.75
2023-09-08T15:18:44.419Z,100367.59
2023-09-08T15:21:13.163Z,100363.25
2023-09-08T15:23:43.588Z,100365.25
2023-09-08T15:26:13.732Z,100371.44
2023-09-08T15:28:43.343Z,100363.59
2023-09-08T15:31:12.147Z,100352.34
2023-09-08T15:33:40.456Z,100362.28
2023-09-08T15:36:09.454Z,100357.84
2023-09-08T15:41:23.330Z,100320.44
2023-09-08T15:43:58.105Z,100359.50
2023-09-08T15:46:28.578Z,100362.44
2023-09-08T15:48:57.981Z,100363.41
2023-09-08T15:51:27.546Z,100369.53
2023-09-08T15:53:57.241Z,100363.97
2023-09-08T15:56:29.747Z,100333.41
2023-09-08T15:59:02.230Z,100365.78
2023-09-08T16:01:30.297Z,100348.31
2023-09-08T16:04:00.062Z,100355.47
2023-09-08T16:06:29.982Z,100357.63
2023-09-08T16:08:59.272Z,100359.34
2023-09-08T16:11:31.003Z,100349.81
2023-09-08T16:14:01.003Z,100356.50
2023-09-08T16:16:31.008Z,100355.50
2023-09-08T16:19:00.913Z,100325.31
2023-09-08T16:21:30.253Z,100339.19
2023-09-08T16:23:58.545Z,100353.53
2023-09-08T16:26:29.824Z,100348.53
2023-09-08T16:29:02.687Z,100353.66
2023-09-08T16:31:31.198Z,100356.94
2023-09-08T16:33:59.662Z,100336.72
2023-09-08T16:36:30.817Z,100354.72
2023-09-08T16:39:10.895Z,100348.41
2023-09-08T16:41:40.402Z,100362.09
2023-09-08T16:44:14.680Z,100355.31
2023-09-08T16:46:44.504Z,100350.91
2023-09-08T16:49:15.868Z,100344.56
2023-09-08T16:51:43.999Z,100351.38
2023-09-08T16:54:14.675Z,100356.13
2023-09-08T16:56:45.656Z,100361.06
2023-09-08T16:59:22.049Z,100359.16
2023-09-08T17:01:51.785Z,100337.31
2023-09-08T17:04:20.267Z,100362.16
2023-09-08T17:06:50.167Z,100353.16
2023-09-08T17:09:23.852Z,100358.38
2023-09-08T17:11:52.426Z,100353.75
2023-09-08T17:14:23.592Z,100360.34
2023-09-08T17:16:53.193Z,100354.59
2023-09-08T17:19:22.900Z,100357.38
2023-09-08T17:21:53.213Z,100346.25
2023-09-08T17:24:22.581Z,100336.41
2023-09-08T17:26:54.897Z,100359.38
2023-09-08T17:29:26.679Z,100352.56
2023-09-08T17:31:55.959Z,100356.28
2023-09-08T17:34:24.160Z,100346.22
2023-09-08T17:36:57.214Z,100360.97
2023-09-08T17:39:27.018Z,100364.22
2023-09-08T17:41:57.457Z,100364.81
2023-09-08T17:44:28.699Z,100374.44
2023-09-08T17:47:03.752Z,100359.69
2023-09-08T17:49:32.490Z,100365.50
2023-09-08T17:52:04.685Z,100367.66
2023-09-08T17:54:35.066Z,100378.97
2023-09-08T17:57:03.377Z,100360.25
2023-09-08T17:59:33.484Z,100382.56
2023-09-08T18:02:01.941Z,100372.69
2023-09-08T18:04:33.454Z,100387.94
2023-09-08T18:07:01.516Z,100384.31
2023-09-08T18:09:30.017Z,100383.19
2023-09-08T18:11:59.764Z,100373.81
2023-09-08T18:14:33.766Z,100381.44
2023-09-08T18:17:05.829Z,100370.91
2023-09-08T18:19:36.849Z,100376.81
2023-09-08T18:22:07.579Z,100381.47
2023-09-08T18:24:36.187Z,100359.19
2023-09-08T18:27:06.059Z,100375.22
2023-09-08T18:29:35.938Z,100349.44
2023-09-08T18:32:06.024Z,100380.44
2023-09-08T18:34:36.759Z,100374.91
2023-09-08T18:37:05.331Z,100368.59
2023-09-08T18:39:34.515Z,100376.88
2023-09-08T18:42:02.986Z,100374.88
2023-09-08T18:44:31.488Z,100379.97
2023-09-08T18:47:03.534Z,100370.41
2023-09-08T18:49:31.990Z,100383.03
2023-09-08T18:52:03.608Z,100390.25
2023-09-08T18:54:35.148Z,100382.50
2023-09-08T18:57:09.045Z,100389.69
2023-09-08T18:59:45.372Z,100384.41
2023-09-08T19:02:15.110Z,100341.63
2023-09-08T19:04:43.424Z,100382.69
2023-09-08T19:07:12.850Z,100387.78
2023-09-08T19:09:42.308Z,100373.81
2023-09-08T19:12:12.702Z,100385.06
2023-09-08T19:14:40.647Z,100397.91
2023-09-08T19:17:09.345Z,100389.50
2023-09-08T19:19:38.832Z,100388.44
2023-09-08T19:22:11.449Z,100394.19
2023-09-08T19:24:39.572Z,100370.66
2023-09-08T19:27:08.309Z,100396.53
2023-09-08T19:29:36.660Z,100388.00
2023-09-08T19:32:04.934Z,100396.03
2023-09-08T19:34:39.680Z,100371.44
2023-09-08T19:37:09.070Z,100393.22
2023-09-08T19:39:38.448Z,100403.00
2023-09-08T19:42:07.602Z,100405.84
2023-09-08T19:44:41.392Z,100398.94
2023-09-08T19:47:16.126Z,100398.63
2023-09-08T19:49:51.852Z,100401.81
2023-09-08T19:52:20.569Z,100382.06
2023-09-08T19:54:49.410Z,100408.88
2023-09-08T19:57:17.858Z,100398.56
2023-09-08T19:59:48.357Z,100390.34
2023-09-08T20:02:17.142Z,100414.97
2023-09-08T20:04:54.300Z,100412.31
2023-09-08T20:07:22.634Z,100377.81
2023-09-08T20:09:52.450Z,100412.97
2023-09-08T20:12:25.164Z,100412.88
2023-09-08T20:14:57.067Z,100380.91
2023-09-08T20:17:28.800Z,100409.31
2023-09-08T20:20:06.826Z,100378.53
2023-09-08T20:22:40.481Z,100411.72
2023-09-08T20:25:13.671Z,100417.28
2023-09-08T20:27:45.671Z,100395.59
2023-09-08T20:30:16.556Z,100412.38
2023-09-08T20:32:52.441Z,100419.28
2023-09-08T20:35:23.827Z,100412.25
2023-09-08T20:37:54.376Z,100427.47
2023-09-08T20:40:23.171Z,100417.31
2023-09-08T20:42:51.653Z,100417.97
2023-09-08T20:45:21.441Z,100424.06
2023-09-08T20:48:02.492Z,100414.41
2023-09-08T20:50:32.268Z,100420.19
2023-09-08T20:53:07.969Z,100378.56
2023-09-08T20:56:00.326Z,100415.06
2023-09-08T20:58:49.072Z,100405.38
2023-09-08T21:01:17.661Z,100388.44
2023-09-08T21:03:49.345Z,100419.66
2023-09-08T21:06:27.076Z,100394.59
2023-09-08T21:09:06.381Z,100420.75
2023-09-08T21:11:34.498Z,100414.13
2023-09-08T21:14:02.879Z,100390.59
2023-09-08T21:16:31.174Z,100418.13
2023-09-08T21:19:00.363Z,100424.34
2023-09-08T21:21:30.549Z,100398.28
2023-09-08T21:23:58.825Z,100414.75
2023-09-08T21:26:26.979Z,100411.53
2023-09-08T21:28:55.623Z,100404.19
2023-09-08T21:31:24.240Z,100380.63
2023-09-08T21:33:54.932Z,100416.34
2023-09-08T21:36:23.261Z,100391.56
2023-09-08T21:38:56.981Z,100407.06
2023-09-08T21:41:27.472Z,100404.25
2023-09-08T21:43:59.066Z,100406.13
2023-09-08T21:46:27.188Z,100413.38
2023-09-08T21:48:56.690Z,100387.69
2023-09-08T21:51:27.685Z,100387.47
2023-09-08T21:53:58.042Z,100407.34
2023-09-08T21:56:26.566Z,100409.34
2023-09-08T22:01:53.961Z,100401.88
2023-09-08T22:04:36.326Z,100398.59
2023-09-08T22:07:04.826Z,100408.84
2023-09-08T22:09:34.021Z,100397.91
2023-09-08T22:12:04.167Z,100405.06
2023-09-08T22:14:37.035Z,100402.66
2023-09-08T22:17:06.481Z,100385.38
2023-09-08T22:19:35.774Z,100402.13
2023-09-08T22:22:11.445Z,100403.19
2023-09-08T22:24:43.702Z,100404.28
2023-09-08T22:27:12.590Z,100368.00
2023-09-08T22:29:42.364Z,100408.19
2023-09-08T22:32:10.311Z,100407.63
2023-09-08T22:34:40.047Z,100409.00
2023-09-08T22:37:10.070Z,100406.50
2023-09-08T22:39:39.370Z,100408.16
2023-09-08T22:42:09.549Z,100378.44
2023-09-08T22:44:37.449Z,100396.56
2023-09-08T22:47:12.031Z,100400.75
2023-09-08T22:49:59.763Z,100406.28
2023-09-08T22:52:29.219Z,100401.38
2023-09-08T22:55:05.763Z,100409.34
2023-09-08T22:57:44.440Z,100408.78
2023-09-08T23:00:14.222Z,100376.28
2023-09-08T23:02:44.009Z,100363.66
2023-09-08T23:05:12.619Z,100400.25
2023-09-08T23:07:41.391Z,100405.69
2023-09-08T23:10:11.322Z,100407.09
2023-09-08T23:12:39.446Z,100403.22
2023-09-08T23:15:11.486Z,100407.63
2023-09-08T23:17:39.932Z,100405.78
2023-09-08T23:20:09.182Z,100407.16
2023-09-08T23:22:40.923Z,100422.06
2023-09-08T23:25:11.182Z,100401.66
2023-09-08T23:27:42.700Z,100386.81
2023-09-08T23:30:13.680Z,100416.53
2023-09-08T23:32:45.749Z,100413.25
2023-09-08T23:35:20.004Z,100383.53
2023-09-08T23:37:53.196Z,100419.03
2023-09-08T23:40:22.369Z,100409.34
2023-09-08T23:42:50.841Z,100410.75
2023-09-08T23:45:20.576Z,100409.66
2023-09-08T23:47:49.823Z,100395.06
2023-09-08T23:50:18.814Z,100410.22
2023-09-08T23:52:47.760Z,100403.63
2023-09-08T23:55:16.930Z,100377.47
2023-09-08T23:57:46.029Z,100411.59
